sensor_id;sensor_type;location;lat;lon;timestamp;temperature;humidity
3628;DHT22;1830;49.000;12.074;2024-02-26T00:01:46;4.10;99.90
3628;DHT22;1830;49.000;12.074;2024-02-26T00:04:13;4.10;99.90
3628;DHT22;1830;49.000;12.074;2024-02-26T00:06:40;4.10;99.90
3628;DHT22;1830;49.000;12.074;2024-02-26T00:09:07;4.00;99.90
3628;DHT22;1830;49.000;12.074;2024-02-26T00:11:35;3.90;99.90
3628;DHT22;1830;49.000;12.074;2024-02-26T00:14:02;4.00;99.90
3628;DHT22;1830;49.000;12.074;2024-02-26T00:16:31;4.00;99.90
3628;DHT22;1830;49.000;12.074;2024-02-26T00:18:58;4.00;99.90
3628;DHT22;1830;49.000;12.074;2024-02-26T00:21:25;3.90;99.90
3628;DHT22;1830;49.000;12.074;2024-02-26T00:23:53;3.90;99.90
3628;DHT22;1830;49.000;12.074;2024-02-26T00:26:20;3.90;99.90
3628;DHT22;1830;49.000;12.074;2024-02-26T00:28:46;3.80;99.90
3628;DHT22;1830;49.000;12.074;2024-02-26T00:31:13;3.80;99.90
3628;DHT22;1830;49.000;12.074;2024-02-26T00:33:41;3.80;99.90
3628;DHT22;1830;49.000;12.074;2024-02-26T00:36:08;3.80;99.90
3628;DHT22;1830;49.000;12.074;2024-02-26T00:38:36;3.80;99.90
3628;DHT22;1830;49.000;12.074;2024-02-26T00:41:03;3.70;99.90
3628;DHT22;1830;49.000;12.074;2024-02-26T00:43:29;3.80;99.90
3628;DHT22;1830;49.000;12.074;2024-02-26T00:45:56;3.70;99.90
3628;DHT22;1830;49.000;12.074;2024-02-26T00:48:23;3.80;99.90
3628;DHT22;1830;49.000;12.074;2024-02-26T00:50:52;3.80;99.90
3628;DHT22;1830;49.000;12.074;2024-02-26T00:53:19;3.80;99.90
3628;DHT22;1830;49.000;12.074;2024-02-26T00:55:46;3.80;99.90
3628;DHT22;1830;49.000;12.074;2024-02-26T00:58:13;3.70;99.90
3628;DHT22;1830;49.000;12.074;2024-02-26T01:00:39;3.80;99.90
3628;DHT22;1830;49.000;12.074;2024-02-26T01:03:06;3.80;99.90
3628;DHT22;1830;49.000;12.074;2024-02-26T01:05:33;3.80;99.90
3628;DHT22;1830;49.000;12.074;2024-02-26T01:08:01;3.80;99.90
3628;DHT22;1830;49.000;12.074;2024-02-26T01:10:28;3.80;99.90
3628;DHT22;1830;49.000;12.074;2024-02-26T01:12:55;3.70;99.90
3628;DHT22;1830;49.000;12.074;2024-02-26T01:15:21;3.70;99.90
3628;DHT22;1830;49.000;12.074;2024-02-26T01:17:49;3.60;99.90
3628;DHT22;1830;49.000;12.074;2024-02-26T01:20:16;3.60;99.90
3628;DHT22;1830;49.000;12.074;2024-02-26T01:22:43;3.60;99.90
3628;DHT22;1830;49.000;12.074;2024-02-26T01:25:12;3.60;99.90
3628;DHT22;1830;49.000;12.074;2024-02-26T01:27:39;3.60;99.90
3628;DHT22;1830;49.000;12.074;2024-02-26T01:30:08;3.50;99.90
3628;DHT22;1830;49.000;12.074;2024-02-26T01:32:35;3.50;99.90
3628;DHT22;1830;49.000;12.074;2024-02-26T01:35:02;3.50;99.90
3628;DHT22;1830;49.000;12.074;2024-02-26T01:37:30;3.50;99.90
3628;DHT22;1830;49.000;12.074;2024-02-26T01:39:57;3.40;99.90
3628;DHT22;1830;49.000;12.074;2024-02-26T01:42:25;3.30;99.90
3628;DHT22;1830;49.000;12.074;2024-02-26T01:44:52;3.30;99.90
3628;DHT22;1830;49.000;12.074;2024-02-26T01:47:19;3.30;99.90
3628;DHT22;1830;49.000;12.074;2024-02-26T01:49:46;3.30;99.90
3628;DHT22;1830;49.000;12.074;2024-02-26T01:52:13;3.30;99.90
3628;DHT22;1830;49.000;12.074;2024-02-26T01:54:40;3.20;99.90
3628;DHT22;1830;49.000;12.074;2024-02-26T01:57:09;3.10;99.90
3628;DHT22;1830;49.000;12.074;2024-02-26T01:59:37;3.10;99.90
3628;DHT22;1830;49.000;12.074;2024-02-26T02:02:08;3.10;99.90
3628;DHT22;1830;49.000;12.074;2024-02-26T02:04:36;3.10;99.90
3628;DHT22;1830;49.000;12.074;2024-02-26T02:07:04;3.00;99.90
3628;DHT22;1830;49.000;12.074;2024-02-26T02:09:32;3.00;99.90
3628;DHT22;1830;49.000;12.074;2024-02-26T02:11:59;3.00;99.90
3628;DHT22;1830;49.000;12.074;2024-02-26T02:14:27;2.90;99.90
3628;DHT22;1830;49.000;12.074;2024-02-26T02:16:55;3.00;99.90
3628;DHT22;1830;49.000;12.074;2024-02-26T02:19:21;2.90;99.90
3628;DHT22;1830;49.000;12.074;2024-02-26T02:21:50;2.90;99.90
3628;DHT22;1830;49.000;12.074;2024-02-26T02:24:16;2.90;99.90
3628;DHT22;1830;49.000;12.074;2024-02-26T02:26:43;2.80;99.90
3628;DHT22;1830;49.000;12.074;2024-02-26T02:29:10;2.80;99.90
3628;DHT22;1830;49.000;12.074;2024-02-26T02:31:38;2.80;99.90
3628;DHT22;1830;49.000;12.074;2024-02-26T02:34:04;2.80;99.90
3628;DHT22;1830;49.000;12.074;2024-02-26T02:36:31;2.70;99.90
3628;DHT22;1830;49.000;12.074;2024-02-26T02:39:00;2.70;99.90
3628;DHT22;1830;49.000;12.074;2024-02-26T02:41:26;2.60;99.90
3628;DHT22;1830;49.000;12.074;2024-02-26T02:43:55;2.60;99.90
3628;DHT22;1830;49.000;12.074;2024-02-26T02:46:22;2.60;99.90
3628;DHT22;1830;49.000;12.074;2024-02-26T02:48:48;2.60;99.90
3628;DHT22;1830;49.000;12.074;2024-02-26T02:51:16;2.60;99.90
3628;DHT22;1830;49.000;12.074;2024-02-26T02:53:42;2.50;99.90
3628;DHT22;1830;49.000;12.074;2024-02-26T02:56:10;2.40;99.90
3628;DHT22;1830;49.000;12.074;2024-02-26T02:58:38;2.40;99.90
3628;DHT22;1830;49.000;12.074;2024-02-26T03:01:04;2.40;99.90
3628;DHT22;1830;49.000;12.074;2024-02-26T03:03:31;2.30;99.90
3628;DHT22;1830;49.000;12.074;2024-02-26T03:05:58;2.30;99.90
3628;DHT22;1830;49.000;12.074;2024-02-26T03:08:25;2.40;99.90
3628;DHT22;1830;49.000;12.074;2024-02-26T03:10:52;2.40;99.90
3628;DHT22;1830;49.000;12.074;2024-02-26T03:13:20;2.30;99.90
3628;DHT22;1830;49.000;12.074;2024-02-26T03:15:46;2.40;99.90
3628;DHT22;1830;49.000;12.074;2024-02-26T03:18:13;2.50;99.90
3628;DHT22;1830;49.000;12.074;2024-02-26T03:20:40;2.40;99.90
3628;DHT22;1830;49.000;12.074;2024-02-26T03:23:07;2.50;99.90
3628;DHT22;1830;49.000;12.074;2024-02-26T03:25:37;2.40;99.90
3628;DHT22;1830;49.000;12.074;2024-02-26T03:28:04;2.30;99.90
3628;DHT22;1830;49.000;12.074;2024-02-26T03:30:33;2.30;99.90
3628;DHT22;1830;49.000;12.074;2024-02-26T03:33:00;2.30;99.90
3628;DHT22;1830;49.000;12.074;2024-02-26T03:35:26;2.30;99.90
3628;DHT22;1830;49.000;12.074;2024-02-26T03:37:53;2.20;99.90
3628;DHT22;1830;49.000;12.074;2024-02-26T03:40:20;2.10;99.90
3628;DHT22;1830;49.000;12.074;2024-02-26T03:42:47;2.20;99.90
3628;DHT22;1830;49.000;12.074;2024-02-26T03:45:14;2.20;99.90
3628;DHT22;1830;49.000;12.074;2024-02-26T03:47:42;2.20;99.90
3628;DHT22;1830;49.000;12.074;2024-02-26T03:50:09;2.20;99.90
3628;DHT22;1830;49.000;12.074;2024-02-26T03:52:36;2.30;99.90
3628;DHT22;1830;49.000;12.074;2024-02-26T03:55:03;2.20;99.90
3628;DHT22;1830;49.000;12.074;2024-02-26T03:57:30;2.20;99.90
3628;DHT22;1830;49.000;12.074;2024-02-26T03:59:57;2.20;99.90
3628;DHT22;1830;49.000;12.074;2024-02-26T04:02:23;2.10;99.90
3628;DHT22;1830;49.000;12.074;2024-02-26T04:04:52;2.10;99.90
3628;DHT22;1830;49.000;12.074;2024-02-26T04:07:19;2.00;99.90
3628;DHT22;1830;49.000;12.074;2024-02-26T04:09:46;2.00;99.90
3628;DHT22;1830;49.000;12.074;2024-02-26T04:12:12;2.00;99.90
3628;DHT22;1830;49.000;12.074;2024-02-26T04:14:40;2.00;99.90
3628;DHT22;1830;49.000;12.074;2024-02-26T04:17:06;2.10;99.90
3628;DHT22;1830;49.000;12.074;2024-02-26T04:19:33;2.00;99.90
3628;DHT22;1830;49.000;12.074;2024-02-26T04:22:01;1.90;99.90
3628;DHT22;1830;49.000;12.074;2024-02-26T04:24:28;1.90;99.90
3628;DHT22;1830;49.000;12.074;2024-02-26T04:26:55;1.90;99.90
3628;DHT22;1830;49.000;12.074;2024-02-26T04:29:21;1.80;99.90
3628;DHT22;1830;49.000;12.074;2024-02-26T04:31:48;1.60;99.90
3628;DHT22;1830;49.000;12.074;2024-02-26T04:34:15;1.70;99.90
3628;DHT22;1830;49.000;12.074;2024-02-26T04:36:42;1.80;99.90
3628;DHT22;1830;49.000;12.074;2024-02-26T04:39:10;1.80;99.90
3628;DHT22;1830;49.000;12.074;2024-02-26T04:41:37;1.80;99.90
3628;DHT22;1830;49.000;12.074;2024-02-26T04:44:04;1.80;99.90
3628;DHT22;1830;49.000;12.074;2024-02-26T04:46:31;1.70;99.90
3628;DHT22;1830;49.000;12.074;2024-02-26T04:48:58;1.70;99.90
3628;DHT22;1830;49.000;12.074;2024-02-26T04:51:25;1.70;99.90
3628;DHT22;1830;49.000;12.074;2024-02-26T04:53:51;1.70;99.90
3628;DHT22;1830;49.000;12.074;2024-02-26T04:56:21;1.70;99.90
3628;DHT22;1830;49.000;12.074;2024-02-26T04:58:48;1.70;99.90
3628;DHT22;1830;49.000;12.074;2024-02-26T05:01:15;1.70;99.90
3628;DHT22;1830;49.000;12.074;2024-02-26T05:03:42;1.70;99.90
3628;DHT22;1830;49.000;12.074;2024-02-26T05:06:09;1.70;99.90
3628;DHT22;1830;49.000;12.074;2024-02-26T05:08:36;1.60;99.90
3628;DHT22;1830;49.000;12.074;2024-02-26T05:11:04;1.60;99.90
3628;DHT22;1830;49.000;12.074;2024-02-26T05:13:33;1.60;99.90
3628;DHT22;1830;49.000;12.074;2024-02-26T05:15:59;1.60;99.90
3628;DHT22;1830;49.000;12.074;2024-02-26T05:18:27;1.40;99.90
3628;DHT22;1830;49.000;12.074;2024-02-26T05:20:54;1.50;99.90
3628;DHT22;1830;49.000;12.074;2024-02-26T05:23:21;1.50;99.90
3628;DHT22;1830;49.000;12.074;2024-02-26T05:25:48;1.60;99.90
3628;DHT22;1830;49.000;12.074;2024-02-26T05:28:15;2.30;99.90
3628;DHT22;1830;49.000;12.074;2024-02-26T05:30:43;2.10;99.90
3628;DHT22;1830;49.000;12.074;2024-02-26T05:33:10;2.00;99.90
3628;DHT22;1830;49.000;12.074;2024-02-26T05:35:37;1.90;99.90
3628;DHT22;1830;49.000;12.074;2024-02-26T05:38:04;1.90;99.90
3628;DHT22;1830;49.000;12.074;2024-02-26T05:40:31;1.90;99.90
3628;DHT22;1830;49.000;12.074;2024-02-26T05:42:57;1.90;99.90
3628;DHT22;1830;49.000;12.074;2024-02-26T05:45:24;1.80;99.90
3628;DHT22;1830;49.000;12.074;2024-02-26T05:47:52;1.80;99.90
3628;DHT22;1830;49.000;12.074;2024-02-26T05:50:19;1.70;99.90
3628;DHT22;1830;49.000;12.074;2024-02-26T05:52:46;1.70;99.90
3628;DHT22;1830;49.000;12.074;2024-02-26T05:55:13;1.80;99.90
3628;DHT22;1830;49.000;12.074;2024-02-26T05:57:40;1.70;99.90
3628;DHT22;1830;49.000;12.074;2024-02-26T06:00:07;1.70;99.90
3628;DHT22;1830;49.000;12.074;2024-02-26T06:02:34;1.60;99.90
3628;DHT22;1830;49.000;12.074;2024-02-26T06:05:03;1.60;99.90
3628;DHT22;1830;49.000;12.074;2024-02-26T06:07:30;1.60;99.90
3628;DHT22;1830;49.000;12.074;2024-02-26T06:09:57;1.50;99.90
3628;DHT22;1830;49.000;12.074;2024-02-26T06:12:23;1.50;99.90
3628;DHT22;1830;49.000;12.074;2024-02-26T06:14:52;1.50;99.90
3628;DHT22;1830;49.000;12.074;2024-02-26T06:17:18;1.50;99.90
3628;DHT22;1830;49.000;12.074;2024-02-26T06:19:45;1.50;99.90
3628;DHT22;1830;49.000;12.074;2024-02-26T06:22:13;1.40;99.90
3628;DHT22;1830;49.000;12.074;2024-02-26T06:24:40;1.40;99.90
3628;DHT22;1830;49.000;12.074;2024-02-26T06:27:07;1.40;99.90
3628;DHT22;1830;49.000;12.074;2024-02-26T06:29:34;1.40;99.90
3628;DHT22;1830;49.000;12.074;2024-02-26T06:32:00;1.40;99.90
3628;DHT22;1830;49.000;12.074;2024-02-26T06:34:27;1.40;99.90
3628;DHT22;1830;49.000;12.074;2024-02-26T06:36:54;1.40;99.90
3628;DHT22;1830;49.000;12.074;2024-02-26T06:39:23;1.50;99.90
3628;DHT22;1830;49.000;12.074;2024-02-26T06:41:49;1.50;99.90
3628;DHT22;1830;49.000;12.074;2024-02-26T06:44:19;1.50;99.90
3628;DHT22;1830;49.000;12.074;2024-02-26T06:46:46;1.50;99.90
3628;DHT22;1830;49.000;12.074;2024-02-26T06:49:13;1.50;99.90
3628;DHT22;1830;49.000;12.074;2024-02-26T06:51:39;1.40;99.90
3628;DHT22;1830;49.000;12.074;2024-02-26T06:54:06;1.40;99.90
3628;DHT22;1830;49.000;12.074;2024-02-26T06:56:36;1.40;99.90
3628;DHT22;1830;49.000;12.074;2024-02-26T06:59:03;1.50;99.90
3628;DHT22;1830;49.000;12.074;2024-02-26T07:01:29;1.60;99.90
3628;DHT22;1830;49.000;12.074;2024-02-26T07:03:56;1.70;99.90
3628;DHT22;1830;49.000;12.074;2024-02-26T07:06:23;1.80;99.90
3628;DHT22;1830;49.000;12.074;2024-02-26T07:08:50;1.80;99.90
3628;DHT22;1830;49.000;12.074;2024-02-26T07:11:17;1.80;99.90
3628;DHT22;1830;49.000;12.074;2024-02-26T07:13:46;1.90;99.90
3628;DHT22;1830;49.000;12.074;2024-02-26T07:16:15;2.00;99.90
3628;DHT22;1830;49.000;12.074;2024-02-26T07:18:42;2.00;99.90
3628;DHT22;1830;49.000;12.074;2024-02-26T07:21:12;2.10;99.90
3628;DHT22;1830;49.000;12.074;2024-02-26T07:23:39;2.20;99.90
3628;DHT22;1830;49.000;12.074;2024-02-26T07:26:05;2.20;99.90
3628;DHT22;1830;49.000;12.074;2024-02-26T07:28:33;2.30;99.90
3628;DHT22;1830;49.000;12.074;2024-02-26T07:31:02;2.30;99.90
3628;DHT22;1830;49.000;12.074;2024-02-26T07:33:28;2.40;99.90
3628;DHT22;1830;49.000;12.074;2024-02-26T07:35:55;2.50;99.90
3628;DHT22;1830;49.000;12.074;2024-02-26T07:38:22;2.50;99.90
3628;DHT22;1830;49.000;12.074;2024-02-26T07:40:49;2.50;99.90
3628;DHT22;1830;49.000;12.074;2024-02-26T07:43:16;2.60;99.90
3628;DHT22;1830;49.000;12.074;2024-02-26T07:45:43;2.60;99.90
3628;DHT22;1830;49.000;12.074;2024-02-26T07:48:11;2.70;99.90
3628;DHT22;1830;49.000;12.074;2024-02-26T07:50:39;2.70;99.90
3628;DHT22;1830;49.000;12.074;2024-02-26T07:53:06;2.80;99.90
3628;DHT22;1830;49.000;12.074;2024-02-26T07:55:33;2.80;99.90
3628;DHT22;1830;49.000;12.074;2024-02-26T07:58:00;3.00;99.90
3628;DHT22;1830;49.000;12.074;2024-02-26T08:00:26;3.00;99.90
3628;DHT22;1830;49.000;12.074;2024-02-26T08:02:54;3.10;99.90
3628;DHT22;1830;49.000;12.074;2024-02-26T08:05:23;3.20;99.90
3628;DHT22;1830;49.000;12.074;2024-02-26T08:07:50;3.30;99.90
3628;DHT22;1830;49.000;12.074;2024-02-26T08:10:17;3.40;99.90
3628;DHT22;1830;49.000;12.074;2024-02-26T08:12:44;3.60;99.90
3628;DHT22;1830;49.000;12.074;2024-02-26T08:15:11;3.70;99.90
3628;DHT22;1830;49.000;12.074;2024-02-26T08:17:38;3.90;99.90
3628;DHT22;1830;49.000;12.074;2024-02-26T08:20:06;4.00;99.90
3628;DHT22;1830;49.000;12.074;2024-02-26T08:22:34;4.10;99.90
3628;DHT22;1830;49.000;12.074;2024-02-26T08:25:01;4.20;99.90
3628;DHT22;1830;49.000;12.074;2024-02-26T08:27:32;4.30;99.90
3628;DHT22;1830;49.000;12.074;2024-02-26T08:29:59;4.30;99.90
3628;DHT22;1830;49.000;12.074;2024-02-26T08:32:25;4.40;99.90
3628;DHT22;1830;49.000;12.074;2024-02-26T08:34:53;4.40;99.90
3628;DHT22;1830;49.000;12.074;2024-02-26T08:37:20;4.40;99.90
3628;DHT22;1830;49.000;12.074;2024-02-26T08:39:48;4.50;99.90
3628;DHT22;1830;49.000;12.074;2024-02-26T08:42:14;4.60;99.90
3628;DHT22;1830;49.000;12.074;2024-02-26T08:44:41;4.70;99.90
3628;DHT22;1830;49.000;12.074;2024-02-26T08:47:08;4.70;99.90
3628;DHT22;1830;49.000;12.074;2024-02-26T08:49:35;4.80;99.90
3628;DHT22;1830;49.000;12.074;2024-02-26T08:52:02;4.80;99.90
3628;DHT22;1830;49.000;12.074;2024-02-26T08:54:30;4.80;99.90
3628;DHT22;1830;49.000;12.074;2024-02-26T08:56:59;4.90;99.90
3628;DHT22;1830;49.000;12.074;2024-02-26T08:59:26;4.90;99.90
3628;DHT22;1830;49.000;12.074;2024-02-26T09:01:52;4.90;99.90
3628;DHT22;1830;49.000;12.074;2024-02-26T09:04:19;5.00;99.90
3628;DHT22;1830;49.000;12.074;2024-02-26T09:06:46;5.00;99.90
3628;DHT22;1830;49.000;12.074;2024-02-26T09:09:14;5.00;99.90
3628;DHT22;1830;49.000;12.074;2024-02-26T09:11:41;5.10;99.90
3628;DHT22;1830;49.000;12.074;2024-02-26T09:14:09;5.10;99.90
3628;DHT22;1830;49.000;12.074;2024-02-26T09:16:36;5.10;99.90
3628;DHT22;1830;49.000;12.074;2024-02-26T09:19:02;5.20;99.90
3628;DHT22;1830;49.000;12.074;2024-02-26T09:21:29;5.20;99.90
3628;DHT22;1830;49.000;12.074;2024-02-26T09:23:56;5.30;99.90
3628;DHT22;1830;49.000;12.074;2024-02-26T09:26:22;5.30;99.90
3628;DHT22;1830;49.000;12.074;2024-02-26T09:28:49;5.20;99.90
3628;DHT22;1830;49.000;12.074;2024-02-26T09:31:17;5.20;99.90
3628;DHT22;1830;49.000;12.074;2024-02-26T09:33:44;5.40;99.90
3628;DHT22;1830;49.000;12.074;2024-02-26T09:36:11;5.40;99.90
3628;DHT22;1830;49.000;12.074;2024-02-26T09:38:37;5.60;99.90
3628;DHT22;1830;49.000;12.074;2024-02-26T09:41:05;5.60;99.90
3628;DHT22;1830;49.000;12.074;2024-02-26T09:43:35;5.60;99.90
3628;DHT22;1830;49.000;12.074;2024-02-26T09:46:04;5.70;99.90
3628;DHT22;1830;49.000;12.074;2024-02-26T09:48:33;5.80;99.90
3628;DHT22;1830;49.000;12.074;2024-02-26T09:51:02;5.90;99.90
3628;DHT22;1830;49.000;12.074;2024-02-26T09:53:29;6.00;99.90
3628;DHT22;1830;49.000;12.074;2024-02-26T09:55:57;6.10;99.90
3628;DHT22;1830;49.000;12.074;2024-02-26T09:58:25;6.20;99.90
3628;DHT22;1830;49.000;12.074;2024-02-26T10:00:56;6.30;99.90
3628;DHT22;1830;49.000;12.074;2024-02-26T10:03:27;6.40;99.90
3628;DHT22;1830;49.000;12.074;2024-02-26T10:05:56;6.40;99.90
3628;DHT22;1830;49.000;12.074;2024-02-26T10:08:24;6.50;99.90
3628;DHT22;1830;49.000;12.074;2024-02-26T10:10:51;6.60;99.90
3628;DHT22;1830;49.000;12.074;2024-02-26T10:13:18;6.70;99.90
3628;DHT22;1830;49.000;12.074;2024-02-26T10:15:46;6.70;99.90
3628;DHT22;1830;49.000;12.074;2024-02-26T10:18:12;6.80;99.90
3628;DHT22;1830;49.000;12.074;2024-02-26T10:20:39;6.80;99.90
3628;DHT22;1830;49.000;12.074;2024-02-26T10:23:07;6.90;99.90
3628;DHT22;1830;49.000;12.074;2024-02-26T10:25:34;6.90;99.90
3628;DHT22;1830;49.000;12.074;2024-02-26T10:28:01;7.00;99.90
3628;DHT22;1830;49.000;12.074;2024-02-26T10:30:29;7.00;99.90
3628;DHT22;1830;49.000;12.074;2024-02-26T10:32:56;7.00;99.90
3628;DHT22;1830;49.000;12.074;2024-02-26T10:35:23;7.10;99.90
3628;DHT22;1830;49.000;12.074;2024-02-26T10:37:50;7.20;99.90
3628;DHT22;1830;49.000;12.074;2024-02-26T10:40:18;7.30;99.90
3628;DHT22;1830;49.000;12.074;2024-02-26T10:42:45;7.40;99.90
3628;DHT22;1830;49.000;12.074;2024-02-26T10:45:12;7.40;99.90
3628;DHT22;1830;49.000;12.074;2024-02-26T10:47:40;7.50;99.90
3628;DHT22;1830;49.000;12.074;2024-02-26T10:50:08;7.60;99.90
3628;DHT22;1830;49.000;12.074;2024-02-26T10:52:36;7.60;99.90
3628;DHT22;1830;49.000;12.074;2024-02-26T10:55:04;7.70;99.90
3628;DHT22;1830;49.000;12.074;2024-02-26T10:57:35;7.70;99.90
3628;DHT22;1830;49.000;12.074;2024-02-26T11:00:04;7.90;99.90
3628;DHT22;1830;49.000;12.074;2024-02-26T11:02:33;8.00;99.90
3628;DHT22;1830;49.000;12.074;2024-02-26T11:05:02;8.10;99.90
3628;DHT22;1830;49.000;12.074;2024-02-26T11:07:30;8.10;99.90
3628;DHT22;1830;49.000;12.074;2024-02-26T11:09:59;8.20;99.90
3628;DHT22;1830;49.000;12.074;2024-02-26T11:12:28;8.20;99.90
3628;DHT22;1830;49.000;12.074;2024-02-26T11:14:57;8.20;99.90
3628;DHT22;1830;49.000;12.074;2024-02-26T11:17:27;8.30;99.90
3628;DHT22;1830;49.000;12.074;2024-02-26T11:19:57;8.30;99.90
3628;DHT22;1830;49.000;12.074;2024-02-26T11:22:24;8.40;99.90
3628;DHT22;1830;49.000;12.074;2024-02-26T11:24:52;8.40;99.90
3628;DHT22;1830;49.000;12.074;2024-02-26T11:27:23;8.40;99.90
3628;DHT22;1830;49.000;12.074;2024-02-26T11:29:51;8.30;99.90
3628;DHT22;1830;49.000;12.074;2024-02-26T11:32:21;8.40;99.90
3628;DHT22;1830;49.000;12.074;2024-02-26T11:34:48;8.50;99.90
3628;DHT22;1830;49.000;12.074;2024-02-26T11:37:17;8.50;99.90
3628;DHT22;1830;49.000;12.074;2024-02-26T11:39:45;8.40;99.90
3628;DHT22;1830;49.000;12.074;2024-02-26T11:42:14;8.50;99.90
3628;DHT22;1830;49.000;12.074;2024-02-26T11:44:41;8.50;99.90
3628;DHT22;1830;49.000;12.074;2024-02-26T11:47:12;8.50;99.90
3628;DHT22;1830;49.000;12.074;2024-02-26T11:49:40;8.60;99.90
3628;DHT22;1830;49.000;12.074;2024-02-26T11:52:09;8.50;99.90
3628;DHT22;1830;49.000;12.074;2024-02-26T11:54:54;8.60;99.90
3628;DHT22;1830;49.000;12.074;2024-02-26T11:57:26;8.60;99.90
3628;DHT22;1830;49.000;12.074;2024-02-26T11:59:54;8.60;99.90
3628;DHT22;1830;49.000;12.074;2024-02-26T12:02:40;8.70;99.90
3628;DHT22;1830;49.000;12.074;2024-02-26T12:05:10;8.70;99.90
3628;DHT22;1830;49.000;12.074;2024-02-26T12:07:40;8.80;99.90
3628;DHT22;1830;49.000;12.074;2024-02-26T12:10:23;8.80;99.90
3628;DHT22;1830;49.000;12.074;2024-02-26T12:12:53;8.80;99.90
3628;DHT22;1830;49.000;12.074;2024-02-26T12:15:23;8.90;99.90
3628;DHT22;1830;49.000;12.074;2024-02-26T12:17:52;8.90;99.90
3628;DHT22;1830;49.000;12.074;2024-02-26T12:20:21;9.00;99.90
3628;DHT22;1830;49.000;12.074;2024-02-26T12:22:50;9.00;99.90
3628;DHT22;1830;49.000;12.074;2024-02-26T12:25:20;9.00;99.90
3628;DHT22;1830;49.000;12.074;2024-02-26T12:27:48;8.90;99.90
3628;DHT22;1830;49.000;12.074;2024-02-26T12:30:14;9.00;99.90
3628;DHT22;1830;49.000;12.074;2024-02-26T12:32:41;9.00;99.90
3628;DHT22;1830;49.000;12.074;2024-02-26T12:35:08;9.00;99.90
3628;DHT22;1830;49.000;12.074;2024-02-26T12:37:36;9.00;99.90
3628;DHT22;1830;49.000;12.074;2024-02-26T12:40:05;9.10;99.90
3628;DHT22;1830;49.000;12.074;2024-02-26T12:42:34;9.10;99.90
3628;DHT22;1830;49.000;12.074;2024-02-26T12:45:05;9.00;99.90
3628;DHT22;1830;49.000;12.074;2024-02-26T12:47:35;9.10;99.90
3628;DHT22;1830;49.000;12.074;2024-02-26T12:50:02;9.30;99.90
3628;DHT22;1830;49.000;12.074;2024-02-26T12:52:31;9.40;99.90
3628;DHT22;1830;49.000;12.074;2024-02-26T12:54:59;9.50;99.90
3628;DHT22;1830;49.000;12.074;2024-02-26T12:57:26;9.50;99.90
3628;DHT22;1830;49.000;12.074;2024-02-26T12:59:55;9.60;99.90
3628;DHT22;1830;49.000;12.074;2024-02-26T13:02:23;9.70;99.90
3628;DHT22;1830;49.000;12.074;2024-02-26T13:04:50;9.80;99.90
3628;DHT22;1830;49.000;12.074;2024-02-26T13:07:17;9.90;99.90
3628;DHT22;1830;49.000;12.074;2024-02-26T13:09:44;9.90;99.90
3628;DHT22;1830;49.000;12.074;2024-02-26T13:12:12;10.10;99.90
3628;DHT22;1830;49.000;12.074;2024-02-26T13:14:40;10.20;99.90
3628;DHT22;1830;49.000;12.074;2024-02-26T13:17:06;10.30;99.90
3628;DHT22;1830;49.000;12.074;2024-02-26T13:19:33;10.30;99.00
3628;DHT22;1830;49.000;12.074;2024-02-26T13:22:04;10.40;98.70
3628;DHT22;1830;49.000;12.074;2024-02-26T13:24:32;10.40;98.50
3628;DHT22;1830;49.000;12.074;2024-02-26T13:26:58;10.50;98.90
3628;DHT22;1830;49.000;12.074;2024-02-26T13:29:27;10.60;98.30
3628;DHT22;1830;49.000;12.074;2024-02-26T13:31:55;10.60;97.20
3628;DHT22;1830;49.000;12.074;2024-02-26T13:34:26;10.60;95.70
3628;DHT22;1830;49.000;12.074;2024-02-26T13:36:53;10.80;95.60
3628;DHT22;1830;49.000;12.074;2024-02-26T13:39:23;10.80;94.70
3628;DHT22;1830;49.000;12.074;2024-02-26T13:41:51;10.80;94.50
3628;DHT22;1830;49.000;12.074;2024-02-26T13:44:18;10.80;94.60
3628;DHT22;1830;49.000;12.074;2024-02-26T13:46:47;10.80;94.20
3628;DHT22;1830;49.000;12.074;2024-02-26T13:49:14;10.80;93.80
3628;DHT22;1830;49.000;12.074;2024-02-26T13:51:41;10.80;93.30
3628;DHT22;1830;49.000;12.074;2024-02-26T13:54:08;10.80;93.50
3628;DHT22;1830;49.000;12.074;2024-02-26T13:56:36;10.90;93.40
3628;DHT22;1830;49.000;12.074;2024-02-26T13:59:03;11.00;93.40
3628;DHT22;1830;49.000;12.074;2024-02-26T14:01:31;11.00;93.00
3628;DHT22;1830;49.000;12.074;2024-02-26T14:04:00;11.10;92.40
3628;DHT22;1830;49.000;12.074;2024-02-26T14:06:29;11.20;92.20
3628;DHT22;1830;49.000;12.074;2024-02-26T14:08:56;11.20;91.40
3628;DHT22;1830;49.000;12.074;2024-02-26T14:11:23;11.20;91.20
3628;DHT22;1830;49.000;12.074;2024-02-26T14:13:50;11.30;91.50
3628;DHT22;1830;49.000;12.074;2024-02-26T14:16:17;11.30;90.80
3628;DHT22;1830;49.000;12.074;2024-02-26T14:18:45;11.30;90.60
3628;DHT22;1830;49.000;12.074;2024-02-26T14:21:13;11.30;90.30
3628;DHT22;1830;49.000;12.074;2024-02-26T14:23:41;11.20;89.90
3628;DHT22;1830;49.000;12.074;2024-02-26T14:26:09;11.30;90.00
3628;DHT22;1830;49.000;12.074;2024-02-26T14:28:36;11.20;89.00
3628;DHT22;1830;49.000;12.074;2024-02-26T14:33:31;11.10;89.10
3628;DHT22;1830;49.000;12.074;2024-02-26T14:35:58;11.10;88.30
3628;DHT22;1830;49.000;12.074;2024-02-26T14:38:26;11.00;88.50
3628;DHT22;1830;49.000;12.074;2024-02-26T14:40:53;11.10;91.90
3628;DHT22;1830;49.000;12.074;2024-02-26T14:43:19;11.10;93.80
3628;DHT22;1830;49.000;12.074;2024-02-26T14:45:46;11.00;95.60
3628;DHT22;1830;49.000;12.074;2024-02-26T14:48:13;11.00;96.40
3628;DHT22;1830;49.000;12.074;2024-02-26T14:50:40;10.90;96.70
3628;DHT22;1830;49.000;12.074;2024-02-26T14:53:06;10.90;96.70
3628;DHT22;1830;49.000;12.074;2024-02-26T14:55:35;10.80;97.20
3628;DHT22;1830;49.000;12.074;2024-02-26T14:58:01;10.70;97.30
3628;DHT22;1830;49.000;12.074;2024-02-26T15:00:28;10.60;97.50
3628;DHT22;1830;49.000;12.074;2024-02-26T15:02:59;10.50;98.00
3628;DHT22;1830;49.000;12.074;2024-02-26T15:05:26;10.40;97.90
3628;DHT22;1830;49.000;12.074;2024-02-26T15:07:52;10.40;98.00
3628;DHT22;1830;49.000;12.074;2024-02-26T15:10:19;10.40;98.30
3628;DHT22;1830;49.000;12.074;2024-02-26T15:12:48;10.30;98.60
3628;DHT22;1830;49.000;12.074;2024-02-26T15:15:16;10.30;98.50
3628;DHT22;1830;49.000;12.074;2024-02-26T15:17:43;10.20;98.90
3628;DHT22;1830;49.000;12.074;2024-02-26T15:20:10;10.20;99.60
3628;DHT22;1830;49.000;12.074;2024-02-26T15:22:37;10.00;99.90
3628;DHT22;1830;49.000;12.074;2024-02-26T15:25:04;9.90;99.90
3628;DHT22;1830;49.000;12.074;2024-02-26T15:27:31;9.90;99.90
3628;DHT22;1830;49.000;12.074;2024-02-26T15:29:59;9.80;99.90
3628;DHT22;1830;49.000;12.074;2024-02-26T15:32:26;9.90;99.90
3628;DHT22;1830;49.000;12.074;2024-02-26T15:34:53;9.80;99.90
3628;DHT22;1830;49.000;12.074;2024-02-26T15:37:20;9.80;99.90
3628;DHT22;1830;49.000;12.074;2024-02-26T15:39:47;9.60;99.90
3628;DHT22;1830;49.000;12.074;2024-02-26T15:42:14;9.50;99.90
3628;DHT22;1830;49.000;12.074;2024-02-26T15:44:41;9.50;99.90
3628;DHT22;1830;49.000;12.074;2024-02-26T15:47:10;9.50;99.90
3628;DHT22;1830;49.000;12.074;2024-02-26T15:49:37;9.50;99.90
3628;DHT22;1830;49.000;12.074;2024-02-26T15:52:04;9.40;99.90
3628;DHT22;1830;49.000;12.074;2024-02-26T15:54:38;9.40;99.90
3628;DHT22;1830;49.000;12.074;2024-02-26T15:57:05;9.30;99.90
3628;DHT22;1830;49.000;12.074;2024-02-26T15:59:32;9.10;99.90
3628;DHT22;1830;49.000;12.074;2024-02-26T16:01:59;9.10;99.90
3628;DHT22;1830;49.000;12.074;2024-02-26T16:04:27;9.10;99.90